sensor_id;sensor_type;location;lat;lon;timestamp;pressure;altitude;pressure_sealevel;temperature;humidity
64095;BME280;50353;51.420;5.682;2022-08-11T00:02:24;101952.00;;;21.24;55.79
64095;BME280;50353;51.420;5.682;2022-08-11T00:04:50;101946.75;;;20.92;57.78
64095;BME280;50353;51.420;5.682;2022-08-11T00:07:16;101947.41;;;20.84;57.86
64095;BME280;50353;51.420;5.682;2022-08-11T00:09:42;101944.69;;;21.05;56.37
64095;BME280;50353;51.420;5.682;2022-08-11T00:12:13;101931.44;;;20.92;58.21
64095;BME280;50353;51.420;5.682;2022-08-11T00:14:39;101943.28;;;21.11;57.34
64095;BME280;50353;51.420;5.682;2022-08-11T00:17:08;101939.88;;;20.78;56.98
64095;BME280;50353;51.420;5.682;2022-08-11T00:19:42;101940.81;;;20.98;55.57
64095;BME280;50353;51.420;5.682;2022-08-11T00:22:09;101940.81;;;20.98;56.48
64095;BME280;50353;51.420;5.682;2022-08-11T00:24:38;101935.16;;;20.91;57.33
64095;BME280;50353;51.420;5.682;2022-08-11T00:27:05;101941.84;;;20.76;57.54
64095;BME280;50353;51.420;5.682;2022-08-11T00:29:31;101946.56;;;20.84;57.35
64095;BME280;50353;51.420;5.682;2022-08-11T00:32:00;101940.53;;;20.70;58.56
64095;BME280;50353;51.420;5.682;2022-08-11T00:34:34;101936.72;;;20.73;57.26
64095;BME280;50353;51.420;5.682;2022-08-11T00:37:06;101930.50;;;20.72;56.82
64095;BME280;50353;51.420;5.682;2022-08-11T00:39:41;101937.63;;;20.62;57.15
64095;BME280;50353;51.420;5.682;2022-08-11T00:47:52;101938.53;;;20.30;58.29
64095;BME280;50353;51.420;5.682;2022-08-11T00:50:51;101940.00;;;20.23;57.01
64095;BME280;50353;51.420;5.682;2022-08-11T00:53:38;101938.59;;;20.40;57.30
64095;BME280;50353;51.420;5.682;2022-08-11T01:04:29;101939.25;;;20.32;57.88
64095;BME280;50353;51.420;5.682;2022-08-11T01:19:02;101935.09;;;20.28;57.08
64095;BME280;50353;51.420;5.682;2022-08-11T01:25:06;101939.97;;;20.02;58.10
64095;BME280;50353;51.420;5.682;2022-08-11T01:27:49;101934.84;;;19.99;58.77
64095;BME280;50353;51.420;5.682;2022-08-11T01:30:46;101935.28;;;19.60;60.04
64095;BME280;50353;51.420;5.682;2022-08-11T01:36:28;101948.31;;;19.87;59.49
64095;BME280;50353;51.420;5.682;2022-08-11T01:42:36;101944.06;;;19.51;60.87
64095;BME280;50353;51.420;5.682;2022-08-11T01:45:41;101946.91;;;19.61;60.54
64095;BME280;50353;51.420;5.682;2022-08-11T01:50:56;101946.31;;;19.46;60.83
64095;BME280;50353;51.420;5.682;2022-08-11T02:07:18;101950.25;;;19.74;60.32
64095;BME280;50353;51.420;5.682;2022-08-11T02:12:45;101945.09;;;19.27;61.11
64095;BME280;50353;51.420;5.682;2022-08-11T02:15:37;101939.34;;;19.20;61.56
64095;BME280;50353;51.420;5.682;2022-08-11T02:18:20;101954.72;;;19.30;61.11
64095;BME280;50353;51.420;5.682;2022-08-11T02:21:02;101952.38;;;18.91;61.96
64095;BME280;50353;51.420;5.682;2022-08-11T02:24:03;101949.47;;;19.05;61.61
64095;BME280;50353;51.420;5.682;2022-08-11T02:29:18;101950.09;;;19.09;63.07
64095;BME280;50353;51.420;5.682;2022-08-11T02:35:17;101942.66;;;19.35;62.42
64095;BME280;50353;51.420;5.682;2022-08-11T02:41:18;101940.69;;;18.56;64.25
64095;BME280;50353;51.420;5.682;2022-08-11T02:44:31;101942.22;;;18.72;63.36
64095;BME280;50353;51.420;5.682;2022-08-11T02:47:07;101930.03;;;18.79;62.39
64095;BME280;50353;51.420;5.682;2022-08-11T02:55:28;101937.56;;;18.74;61.83
64095;BME280;50353;51.420;5.682;2022-08-11T02:58:10;101932.53;;;18.47;63.43
64095;BME280;50353;51.420;5.682;2022-08-11T03:00:48;101929.44;;;18.87;61.34
64095;BME280;50353;51.420;5.682;2022-08-11T03:03:22;101941.00;;;18.76;61.42
64095;BME280;50353;51.420;5.682;2022-08-11T03:06:04;101944.72;;;19.09;60.27
64095;BME280;50353;51.420;5.682;2022-08-11T03:08:49;101935.19;;;18.94;61.64
64095;BME280;50353;51.420;5.682;2022-08-11T03:11:54;101937.94;;;18.69;62.71
64095;BME280;50353;51.420;5.682;2022-08-11T03:14:53;101939.28;;;18.75;61.70
64095;BME280;50353;51.420;5.682;2022-08-11T03:23:14;101930.81;;;18.46;62.29
64095;BME280;50353;51.420;5.682;2022-08-11T03:25:54;101928.50;;;18.41;62.86
64095;BME280;50353;51.420;5.682;2022-08-11T03:28:29;101930.16;;;18.31;63.04
64095;BME280;50353;51.420;5.682;2022-08-11T03:33:47;101938.50;;;18.50;61.88
64095;BME280;50353;51.420;5.682;2022-08-11T03:42:34;101939.25;;;18.28;63.38
64095;BME280;50353;51.420;5.682;2022-08-11T03:45:30;101934.84;;;18.51;63.30
64095;BME280;50353;51.420;5.682;2022-08-11T03:48:20;101936.97;;;18.35;62.84
64095;BME280;50353;51.420;5.682;2022-08-11T03:57:03;101942.88;;;18.51;62.44
64095;BME280;50353;51.420;5.682;2022-08-11T04:02:34;101933.69;;;18.31;63.68
64095;BME280;50353;51.420;5.682;2022-08-11T04:05:31;101938.63;;;18.49;61.53
64095;BME280;50353;51.420;5.682;2022-08-11T04:14:03;101937.88;;;18.47;62.54
64095;BME280;50353;51.420;5.682;2022-08-11T04:17:27;101932.75;;;18.08;63.56
64095;BME280;50353;51.420;5.682;2022-08-11T04:42:39;101925.00;;;17.79;65.28
64095;BME280;50353;51.420;5.682;2022-08-11T04:45:36;101925.16;;;18.02;64.28
64095;BME280;50353;51.420;5.682;2022-08-11T04:58:07;101934.31;;;17.86;65.01
64095;BME280;50353;51.420;5.682;2022-08-11T05:01:23;101933.16;;;18.15;64.29
64095;BME280;50353;51.420;5.682;2022-08-11T05:12:41;101936.56;;;17.93;65.10
64095;BME280;50353;51.420;5.682;2022-08-11T05:15:12;101923.59;;;18.35;63.20
64095;BME280;50353;51.420;5.682;2022-08-11T05:20:53;101928.75;;;18.49;62.95
64095;BME280;50353;51.420;5.682;2022-08-11T05:23:41;101933.81;;;18.30;63.63
64095;BME280;50353;51.420;5.682;2022-08-11T05:26:27;101935.84;;;18.62;63.48
64095;BME280;50353;51.420;5.682;2022-08-11T05:29:38;101943.00;;;18.97;64.10
64095;BME280;50353;51.420;5.682;2022-08-11T05:32:24;101935.69;;;19.44;62.34
64095;BME280;50353;51.420;5.682;2022-08-11T05:35:12;101941.31;;;19.30;63.77
64095;BME280;50353;51.420;5.682;2022-08-11T05:37:42;101941.03;;;19.55;62.13
64095;BME280;50353;51.420;5.682;2022-08-11T05:40:28;101940.81;;;19.47;61.00
64095;BME280;50353;51.420;5.682;2022-08-11T05:43:13;101949.81;;;19.69;59.40
64095;BME280;50353;51.420;5.682;2022-08-11T05:46:02;101934.91;;;19.76;58.71
64095;BME280;50353;51.420;5.682;2022-08-11T05:48:47;101945.09;;;20.05;59.43
64095;BME280;50353;51.420;5.682;2022-08-11T05:51:33;101946.34;;;20.22;62.26
64095;BME280;50353;51.420;5.682;2022-08-11T05:54:18;101947.84;;;20.47;59.27
64095;BME280;50353;51.420;5.682;2022-08-11T05:57:03;101951.13;;;20.72;60.06
64095;BME280;50353;51.420;5.682;2022-08-11T05:59:30;101945.22;;;20.36;58.95
64095;BME280;50353;51.420;5.682;2022-08-11T06:02:04;101937.00;;;20.58;58.11
64095;BME280;50353;51.420;5.682;2022-08-11T06:04:30;101943.72;;;20.85;56.30
64095;BME280;50353;51.420;5.682;2022-08-11T06:07:05;101955.31;;;21.07;57.34
64095;BME280;50353;51.420;5.682;2022-08-11T06:12:28;101936.38;;;21.18;55.65
64095;BME280;50353;51.420;5.682;2022-08-11T06:15:04;101947.34;;;21.36;54.34
64095;BME280;50353;51.420;5.682;2022-08-11T06:17:31;101953.69;;;21.56;55.47
64095;BME280;50353;51.420;5.682;2022-08-11T06:19:59;101943.78;;;21.57;54.07
64095;BME280;50353;51.420;5.682;2022-08-11T06:22:26;101953.81;;;21.55;54.52
64095;BME280;50353;51.420;5.682;2022-08-11T06:24:57;101932.31;;;21.74;53.78
64095;BME280;50353;51.420;5.682;2022-08-11T06:27:28;101941.25;;;21.75;53.45
64095;BME280;50353;51.420;5.682;2022-08-11T06:29:54;101946.13;;;22.01;51.78
64095;BME280;50353;51.420;5.682;2022-08-11T06:32:23;101935.19;;;21.92;53.43
64095;BME280;50353;51.420;5.682;2022-08-11T06:35:04;101943.16;;;22.43;51.55
64095;BME280;50353;51.420;5.682;2022-08-11T06:42:49;101937.91;;;22.99;50.50
64095;BME280;50353;51.420;5.682;2022-08-11T06:45:25;101947.56;;;23.01;49.87
64095;BME280;50353;51.420;5.682;2022-08-11T06:47:52;101949.91;;;22.76;51.16
64095;BME280;50353;51.420;5.682;2022-08-11T06:50:19;101957.59;;;23.19;49.04
64095;BME280;50353;51.420;5.682;2022-08-11T06:53:04;101950.41;;;23.00;48.56
64095;BME280;50353;51.420;5.682;2022-08-11T06:55:33;101949.16;;;23.59;47.90
64095;BME280;50353;51.420;5.682;2022-08-11T06:58:19;101943.63;;;23.61;48.25
64095;BME280;50353;51.420;5.682;2022-08-11T07:01:10;101949.09;;;24.15;47.77
64095;BME280;50353;51.420;5.682;2022-08-11T07:03:46;101947.84;;;24.27;47.40
64095;BME280;50353;51.420;5.682;2022-08-11T07:06:37;101958.19;;;24.14;47.37
64095;BME280;50353;51.420;5.682;2022-08-11T07:12:32;101957.94;;;24.25;46.39
64095;BME280;50353;51.420;5.682;2022-08-11T07:15:23;101961.13;;;24.21;45.68
64095;BME280;50353;51.420;5.682;2022-08-11T07:18:24;101950.34;;;24.47;45.67
64095;BME280;50353;51.420;5.682;2022-08-11T07:21:11;101951.97;;;24.13;46.49
64095;BME280;50353;51.420;5.682;2022-08-11T07:23:59;101959.41;;;24.38;45.18
64095;BME280;50353;51.420;5.682;2022-08-11T07:26:48;101956.53;;;24.57;45.70
64095;BME280;50353;51.420;5.682;2022-08-11T07:29:34;101965.41;;;24.68;45.84
64095;BME280;50353;51.420;5.682;2022-08-11T07:32:10;101958.59;;;24.82;45.88
64095;BME280;50353;51.420;5.682;2022-08-11T07:34:46;101963.25;;;24.97;44.11
64095;BME280;50353;51.420;5.682;2022-08-11T07:37:14;101952.31;;;25.34;43.79
64095;BME280;50353;51.420;5.682;2022-08-11T07:39:43;101966.69;;;25.93;43.75
64095;BME280;50353;51.420;5.682;2022-08-11T07:42:10;101956.09;;;25.57;43.77
64095;BME280;50353;51.420;5.682;2022-08-11T07:44:39;101956.94;;;25.23;45.04
64095;BME280;50353;51.420;5.682;2022-08-11T07:47:25;101963.13;;;24.81;44.84
64095;BME280;50353;51.420;5.682;2022-08-11T07:50:10;101967.59;;;25.51;43.80
64095;BME280;50353;51.420;5.682;2022-08-11T07:52:56;101960.56;;;25.75;42.69
64095;BME280;50353;51.420;5.682;2022-08-11T07:55:23;101964.31;;;25.98;41.90
64095;BME280;50353;51.420;5.682;2022-08-11T07:57:50;101958.44;;;26.44;41.98
64095;BME280;50353;51.420;5.682;2022-08-11T08:00:36;101960.97;;;26.46;41.58
64095;BME280;50353;51.420;5.682;2022-08-11T08:03:21;101963.53;;;26.72;40.50
64095;BME280;50353;51.420;5.682;2022-08-11T08:06:06;101957.94;;;26.32;41.73
64095;BME280;50353;51.420;5.682;2022-08-11T08:08:51;101952.84;;;26.62;40.89
64095;BME280;50353;51.420;5.682;2022-08-11T08:11:35;101957.75;;;26.18;41.52
64095;BME280;50353;51.420;5.682;2022-08-11T08:14:20;101954.72;;;27.26;40.17
64095;BME280;50353;51.420;5.682;2022-08-11T08:17:04;101952.44;;;27.07;40.55
64095;BME280;50353;51.420;5.682;2022-08-11T08:19:48;101949.09;;;26.80;40.81
64095;BME280;50353;51.420;5.682;2022-08-11T08:22:15;101959.66;;;27.71;39.91
64095;BME280;50353;51.420;5.682;2022-08-11T08:24:42;101958.75;;;28.63;37.84
64095;BME280;50353;51.420;5.682;2022-08-11T08:27:09;101955.75;;;27.96;38.49
64095;BME280;50353;51.420;5.682;2022-08-11T08:29:36;101956.97;;;28.17;37.42
64095;BME280;50353;51.420;5.682;2022-08-11T08:32:22;101955.84;;;28.26;38.71
64095;BME280;50353;51.420;5.682;2022-08-11T08:34:48;101952.38;;;28.17;38.21
64095;BME280;50353;51.420;5.682;2022-08-11T08:37:17;101940.88;;;28.83;36.88
64095;BME280;50353;51.420;5.682;2022-08-11T08:39:45;101954.53;;;28.60;38.29
64095;BME280;50353;51.420;5.682;2022-08-11T08:42:12;101959.78;;;27.69;39.77
64095;BME280;50353;51.420;5.682;2022-08-11T08:44:44;101957.38;;;28.06;37.50
64095;BME280;50353;51.420;5.682;2022-08-11T08:47:15;101952.94;;;28.51;38.17
64095;BME280;50353;51.420;5.682;2022-08-11T08:49:48;101952.94;;;28.89;35.69
64095;BME280;50353;51.420;5.682;2022-08-11T08:52:19;101952.16;;;29.40;35.80
64095;BME280;50353;51.420;5.682;2022-08-11T08:54:50;101955.81;;;29.03;36.52
64095;BME280;50353;51.420;5.682;2022-08-11T08:57:20;101951.06;;;28.52;38.05
64095;BME280;50353;51.420;5.682;2022-08-11T08:59:47;101957.50;;;29.04;35.53
64095;BME280;50353;51.420;5.682;2022-08-11T09:02:14;101954.78;;;28.89;35.72
64095;BME280;50353;51.420;5.682;2022-08-11T09:04:43;101955.34;;;29.44;35.19
64095;BME280;50353;51.420;5.682;2022-08-11T09:07:14;101951.94;;;28.67;36.92
64095;BME280;50353;51.420;5.682;2022-08-11T09:09:49;101954.72;;;29.27;34.52
64095;BME280;50353;51.420;5.682;2022-08-11T09:12:17;101943.16;;;28.65;35.70
64095;BME280;50353;51.420;5.682;2022-08-11T09:14:46;101935.88;;;28.57;36.53
64095;BME280;50353;51.420;5.682;2022-08-11T09:17:26;101942.66;;;29.88;33.47
64095;BME280;50353;51.420;5.682;2022-08-11T09:19:54;101930.31;;;30.42;33.83
64095;BME280;50353;51.420;5.682;2022-08-11T09:22:25;101943.38;;;30.68;32.03
64095;BME280;50353;51.420;5.682;2022-08-11T09:25:09;101942.88;;;29.86;33.44
64095;BME280;50353;51.420;5.682;2022-08-11T09:27:54;101939.88;;;30.24;32.65
64095;BME280;50353;51.420;5.682;2022-08-11T09:30:22;101933.00;;;30.92;31.54
64095;BME280;50353;51.420;5.682;2022-08-11T09:32:52;101929.53;;;30.70;32.42
64095;BME280;50353;51.420;5.682;2022-08-11T09:35:24;101940.06;;;30.79;32.54
64095;BME280;50353;51.420;5.682;2022-08-11T09:37:49;101938.66;;;30.33;31.27
64095;BME280;50353;51.420;5.682;2022-08-11T09:40:35;101940.25;;;29.26;33.38
64095;BME280;50353;51.420;5.682;2022-08-11T09:43:06;101935.78;;;30.13;32.79
64095;BME280;50353;51.420;5.682;2022-08-11T09:45:53;101932.88;;;30.72;30.94
64095;BME280;50353;51.420;5.682;2022-08-11T09:48:22;101935.81;;;31.53;29.82
64095;BME280;50353;51.420;5.682;2022-08-11T09:50:50;101929.72;;;31.03;29.51
64095;BME280;50353;51.420;5.682;2022-08-11T09:53:17;101934.56;;;31.56;31.42
64095;BME280;50353;51.420;5.682;2022-08-11T09:55:44;101933.25;;;31.45;31.42
64095;BME280;50353;51.420;5.682;2022-08-11T09:58:11;101930.97;;;31.56;29.80
64095;BME280;50353;51.420;5.682;2022-08-11T10:00:56;101925.44;;;32.24;29.08
64095;BME280;50353;51.420;5.682;2022-08-11T10:03:25;101927.47;;;31.68;30.35
64095;BME280;50353;51.420;5.682;2022-08-11T10:05:54;101923.09;;;32.01;31.10
64095;BME280;50353;51.420;5.682;2022-08-11T10:08:41;101915.06;;;31.11;30.21
64095;BME280;50353;51.420;5.682;2022-08-11T10:11:13;101916.75;;;31.12;30.74
64095;BME280;50353;51.420;5.682;2022-08-11T10:13:43;101912.66;;;31.36;29.11
64095;BME280;50353;51.420;5.682;2022-08-11T10:16:31;101911.31;;;32.00;28.09
64095;BME280;50353;51.420;5.682;2022-08-11T10:18:58;101908.13;;;31.83;29.82
64095;BME280;50353;51.420;5.682;2022-08-11T10:21:41;101912.31;;;31.73;29.00
64095;BME280;50353;51.420;5.682;2022-08-11T10:24:09;101908.41;;;32.22;27.86
64095;BME280;50353;51.420;5.682;2022-08-11T10:26:55;101900.59;;;32.46;28.24
64095;BME280;50353;51.420;5.682;2022-08-11T10:29:27;101911.41;;;33.06;27.76
64095;BME280;50353;51.420;5.682;2022-08-11T10:32:13;101913.84;;;33.21;26.80
64095;BME280;50353;51.420;5.682;2022-08-11T10:35:01;101901.03;;;32.36;31.20
64095;BME280;50353;51.420;5.682;2022-08-11T10:37:28;101907.56;;;32.15;30.86
64095;BME280;50353;51.420;5.682;2022-08-11T10:40:01;101894.88;;;32.61;27.17
64095;BME280;50353;51.420;5.682;2022-08-11T10:42:28;101893.03;;;32.28;29.68
64095;BME280;50353;51.420;5.682;2022-08-11T10:45:14;101899.22;;;32.95;30.32
64095;BME280;50353;51.420;5.682;2022-08-11T10:47:58;101905.31;;;33.04;28.66
64095;BME280;50353;51.420;5.682;2022-08-11T10:50:25;101896.31;;;32.83;27.72
64095;BME280;50353;51.420;5.682;2022-08-11T10:53:10;101885.75;;;33.78;28.89
64095;BME280;50353;51.420;5.682;2022-08-11T10:55:55;101893.47;;;33.10;26.54
64095;BME280;50353;51.420;5.682;2022-08-11T10:58:41;101885.41;;;32.57;27.87
64095;BME280;50353;51.420;5.682;2022-08-11T11:01:28;101889.19;;;32.49;26.94
64095;BME280;50353;51.420;5.682;2022-08-11T11:04:03;101886.91;;;33.25;24.34
64095;BME280;50353;51.420;5.682;2022-08-11T11:09:15;101870.47;;;32.52;26.58
64095;BME280;50353;51.420;5.682;2022-08-11T11:12:10;101876.19;;;33.87;25.88
64095;BME280;50353;51.420;5.682;2022-08-11T11:14:55;101867.63;;;33.70;24.57
64095;BME280;50353;51.420;5.682;2022-08-11T11:17:44;101863.50;;;32.57;26.56
64095;BME280;50353;51.420;5.682;2022-08-11T11:20:29;101863.75;;;33.14;26.73
64095;BME280;50353;51.420;5.682;2022-08-11T11:23:03;101866.91;;;33.24;26.44
64095;BME280;50353;51.420;5.682;2022-08-11T11:31:49;101866.88;;;33.56;24.48
64095;BME280;50353;51.420;5.682;2022-08-11T11:34:20;101873.66;;;33.53;24.87
64095;BME280;50353;51.420;5.682;2022-08-11T11:36:49;101878.34;;;33.46;26.75
64095;BME280;50353;51.420;5.682;2022-08-11T11:39:18;101865.81;;;33.18;25.29
64095;BME280;50353;51.420;5.682;2022-08-11T11:41:44;101855.03;;;33.30;25.33
64095;BME280;50353;51.420;5.682;2022-08-11T11:44:12;101863.06;;;32.73;25.24
64095;BME280;50353;51.420;5.682;2022-08-11T11:46:38;101861.19;;;33.19;25.56
64095;BME280;50353;51.420;5.682;2022-08-11T11:49:06;101856.97;;;33.16;25.20
64095;BME280;50353;51.420;5.682;2022-08-11T11:51:35;101861.38;;;32.72;26.18
64095;BME280;50353;51.420;5.682;2022-08-11T11:54:01;101854.34;;;32.96;25.06
64095;BME280;50353;51.420;5.682;2022-08-11T11:56:29;101850.53;;;32.97;25.47
64095;BME280;50353;51.420;5.682;2022-08-11T11:58:55;101852.50;;;33.29;25.83
64095;BME280;50353;51.420;5.682;2022-08-11T12:01:41;101844.59;;;33.07;24.82
64095;BME280;50353;51.420;5.682;2022-08-11T12:04:08;101853.25;;;33.04;27.51
64095;BME280;50353;51.420;5.682;2022-08-11T12:06:35;101843.50;;;33.53;25.00
64095;BME280;50353;51.420;5.682;2022-08-11T12:09:02;101844.72;;;33.32;25.55
64095;BME280;50353;51.420;5.682;2022-08-11T12:11:28;101841.22;;;33.76;24.30
64095;BME280;50353;51.420;5.682;2022-08-11T12:14:16;101827.31;;;34.02;23.96
64095;BME280;50353;51.420;5.682;2022-08-11T12:16:44;101843.09;;;33.11;24.97
64095;BME280;50353;51.420;5.682;2022-08-11T12:19:22;101832.03;;;33.63;23.87
64095;BME280;50353;51.420;5.682;2022-08-11T12:21:50;101830.28;;;34.45;24.94
64095;BME280;50353;51.420;5.682;2022-08-11T12:24:36;101816.13;;;33.79;24.13
64095;BME280;50353;51.420;5.682;2022-08-11T12:27:20;101829.69;;;32.96;27.38
64095;BME280;50353;51.420;5.682;2022-08-11T12:29:48;101815.06;;;33.48;25.03
64095;BME280;50353;51.420;5.682;2022-08-11T12:32:14;101814.00;;;33.81;23.71
64095;BME280;50353;51.420;5.682;2022-08-11T12:34:40;101809.84;;;34.59;25.09
64095;BME280;50353;51.420;5.682;2022-08-11T12:37:06;101804.53;;;34.02;27.25
64095;BME280;50353;51.420;5.682;2022-08-11T12:39:40;101802.31;;;33.60;26.80
64095;BME280;50353;51.420;5.682;2022-08-11T12:42:25;101811.41;;;32.90;25.79
64095;BME280;50353;51.420;5.682;2022-08-11T12:45:11;101800.97;;;33.06;23.54
64095;BME280;50353;51.420;5.682;2022-08-11T12:48:00;101795.75;;;32.97;24.45
64095;BME280;50353;51.420;5.682;2022-08-11T12:50:50;101791.84;;;33.50;24.10
64095;BME280;50353;51.420;5.682;2022-08-11T12:53:39;101779.75;;;34.09;23.65
64095;BME280;50353;51.420;5.682;2022-08-11T12:56:07;101776.25;;;34.20;22.30
64095;BME280;50353;51.420;5.682;2022-08-11T12:58:51;101783.13;;;33.60;23.22
64095;BME280;50353;51.420;5.682;2022-08-11T13:01:18;101782.03;;;34.12;24.28
64095;BME280;50353;51.420;5.682;2022-08-11T13:04:02;101784.69;;;33.49;25.54
64095;BME280;50353;51.420;5.682;2022-08-11T13:06:46;101768.56;;;34.10;24.75
64095;BME280;50353;51.420;5.682;2022-08-11T13:09:12;101766.97;;;34.40;22.73
64095;BME280;50353;51.420;5.682;2022-08-11T13:11:39;101779.13;;;34.32;23.76
64095;BME280;50353;51.420;5.682;2022-08-11T13:14:25;101765.69;;;34.73;26.97
64095;BME280;50353;51.420;5.682;2022-08-11T13:16:51;101764.31;;;33.89;23.88
64095;BME280;50353;51.420;5.682;2022-08-11T13:19:36;101764.72;;;33.93;23.78
64095;BME280;50353;51.420;5.682;2022-08-11T13:22:02;101755.28;;;34.26;23.18
64095;BME280;50353;51.420;5.682;2022-08-11T13:24:29;101762.41;;;34.33;25.72
64095;BME280;50353;51.420;5.682;2022-08-11T13:26:58;101751.19;;;34.35;26.12
64095;BME280;50353;51.420;5.682;2022-08-11T13:29:25;101753.06;;;33.97;23.84
64095;BME280;50353;51.420;5.682;2022-08-11T13:31:53;101740.09;;;33.86;23.52
64095;BME280;50353;51.420;5.682;2022-08-11T13:34:21;101747.66;;;34.65;22.79
64095;BME280;50353;51.420;5.682;2022-08-11T13:36:50;101740.28;;;34.28;22.14
64095;BME280;50353;51.420;5.682;2022-08-11T13:39:16;101746.22;;;34.44;23.32
64095;BME280;50353;51.420;5.682;2022-08-11T13:41:42;101740.16;;;33.79;23.22
64095;BME280;50353;51.420;5.682;2022-08-11T13:44:10;101741.16;;;33.34;24.08
64095;BME280;50353;51.420;5.682;2022-08-11T13:46:37;101743.44;;;32.67;24.02
64095;BME280;50353;51.420;5.682;2022-08-11T13:49:03;101734.38;;;33.62;23.02
64095;BME280;50353;51.420;5.682;2022-08-11T13:51:30;101738.66;;;33.33;22.91
64095;BME280;50353;51.420;5.682;2022-08-11T13:54:07;101734.81;;;33.59;23.10
64095;BME280;50353;51.420;5.682;2022-08-11T13:56:36;101729.09;;;33.42;23.09
64095;BME280;50353;51.420;5.682;2022-08-11T13:59:04;101732.94;;;33.34;23.66
64095;BME280;50353;51.420;5.682;2022-08-11T14:01:33;101726.56;;;33.41;22.75
64095;BME280;50353;51.420;5.682;2022-08-11T14:04:07;101719.28;;;33.53;24.79
64095;BME280;50353;51.420;5.682;2022-08-11T14:06:34;101727.28;;;32.97;25.18
64095;BME280;50353;51.420;5.682;2022-08-11T14:09:02;101727.56;;;33.14;22.27
64095;BME280;50353;51.420;5.682;2022-08-11T14:11:28;101728.81;;;33.18;24.93
64095;BME280;50353;51.420;5.682;2022-08-11T14:14:19;101717.81;;;33.25;22.69
64095;BME280;50353;51.420;5.682;2022-08-11T14:16:45;101721.13;;;33.02;23.35
64095;BME280;50353;51.420;5.682;2022-08-11T14:19:13;101720.81;;;32.85;23.76
64095;BME280;50353;51.420;5.682;2022-08-11T14:21:41;101713.44;;;33.24;24.58
64095;BME280;50353;51.420;5.682;2022-08-11T14:24:27;101713.19;;;33.51;22.90
64095;BME280;50353;51.420;5.682;2022-08-11T14:26:53;101713.81;;;33.28;23.89
64095;BME280;50353;51.420;5.682;2022-08-11T14:29:21;101710.31;;;32.82;22.80
64095;BME280;50353;51.420;5.682;2022-08-11T14:31:57;101708.84;;;33.43;22.66
64095;BME280;50353;51.420;5.682;2022-08-11T14:34:27;101717.06;;;33.11;23.87
64095;BME280;50353;51.420;5.682;2022-08-11T14:37:00;101713.97;;;33.33;23.53
64095;BME280;50353;51.420;5.682;2022-08-11T14:39:29;101706.34;;;33.35;22.86
64095;BME280;50353;51.420;5.682;2022-08-11T14:41:57;101696.84;;;33.38;23.65
64095;BME280;50353;51.420;5.682;2022-08-11T14:44:45;101708.03;;;33.36;23.53
64095;BME280;50353;51.420;5.682;2022-08-11T14:47:33;101697.75;;;32.99;25.46
64095;BME280;50353;51.420;5.682;2022-08-11T14:50:00;101706.19;;;32.59;23.54
64095;BME280;50353;51.420;5.682;2022-08-11T14:52:27;101707.06;;;32.98;23.12
64095;BME280;50353;51.420;5.682;2022-08-11T14:54:55;101695.06;;;32.93;24.08
64095;BME280;50353;51.420;5.682;2022-08-11T14:57:40;101693.31;;;32.66;23.59
64095;BME280;50353;51.420;5.682;2022-08-11T15:00:08;101691.31;;;32.42;23.52
64095;BME280;50353;51.420;5.682;2022-08-11T15:02:38;101693.25;;;32.34;23.06
64095;BME280;50353;51.420;5.682;2022-08-11T15:05:24;101685.72;;;32.75;23.42
64095;BME280;50353;51.420;5.682;2022-08-11T15:07:51;101692.75;;;32.51;24.16
64095;BME280;50353;51.420;5.682;2022-08-11T15:10:18;101681.97;;;32.63;24.17
64095;BME280;50353;51.420;5.682;2022-08-11T15:12:43;101677.31;;;32.63;24.42
64095;BME280;50353;51.420;5.682;2022-08-11T15:15:10;101679.84;;;32.65;24.85
64095;BME280;50353;51.420;5.682;2022-08-11T15:17:57;101662.81;;;32.95;24.11
64095;BME280;50353;51.420;5.682;2022-08-11T15:20:25;101666.38;;;32.63;24.01
64095;BME280;50353;51.420;5.682;2022-08-11T15:23:10;101671.00;;;32.24;22.44
64095;BME280;50353;51.420;5.682;2022-08-11T15:25:57;101659.91;;;32.51;23.51
64095;BME280;50353;51.420;5.682;2022-08-11T15:28:26;101639.72;;;32.52;24.38
64095;BME280;50353;51.420;5.682;2022-08-11T15:31:11;101664.03;;;32.28;25.46
64095;BME280;50353;51.420;5.682;2022-08-11T15:33:56;101652.91;;;32.62;23.98
64095;BME280;50353;51.420;5.682;2022-08-11T15:36:44;101648.34;;;32.49;25.56
64095;BME280;50353;51.420;5.682;2022-08-11T15:39:49;101665.19;;;31.94;23.69
64095;BME280;50353;51.420;5.682;2022-08-11T15:42:44;101644.59;;;32.43;22.71
64095;BME280;50353;51.420;5.682;2022-08-11T15:45:29;101652.72;;;32.18;23.17
64095;BME280;50353;51.420;5.682;2022-08-11T15:48:21;101648.81;;;32.39;21.75
64095;BME280;50353;51.420;5.682;2022-08-11T15:50:52;101636.91;;;32.20;23.30
64095;BME280;50353;51.420;5.682;2022-08-11T15:53:26;101643.66;;;32.04;21.90
64095;BME280;50353;51.420;5.682;2022-08-11T15:55:53;101645.81;;;31.95;22.55
64095;BME280;50353;51.420;5.682;2022-08-11T15:58:20;101642.38;;;32.13;21.92
64095;BME280;50353;51.420;5.682;2022-08-11T16:01:06;101635.22;;;32.19;22.85
64095;BME280;50353;51.420;5.682;2022-08-11T16:04:06;101632.97;;;31.96;23.06
64095;BME280;50353;51.420;5.682;2022-08-11T16:06:50;101637.50;;;31.70;27.07
64095;BME280;50353;51.420;5.682;2022-08-11T16:09:34;101633.84;;;31.96;23.40
64095;BME280;50353;51.420;5.682;2022-08-11T16:12:03;101637.63;;;31.95;23.59
64095;BME280;50353;51.420;5.682;2022-08-11T16:14:32;101632.16;;;31.89;23.42
64095;BME280;50353;51.420;5.682;2022-08-11T16:17:18;101622.13;;;31.76;24.63
64095;BME280;50353;51.420;5.682;2022-08-11T16:19:47;101633.66;;;31.78;23.55
64095;BME280;50353;51.420;5.682;2022-08-11T16:22:20;101628.22;;;31.71;22.44
64095;BME280;50353;51.420;5.682;2022-08-11T16:24:52;101623.38;;;31.80;21.87